createdAt,value
2023-04-05T00:02:05.712Z,2.33
2023-04-05T00:05:31.459Z,1.70
2023-04-05T00:08:34.440Z,2.23
2023-04-05T00:11:54.994Z,2.43
2023-04-05T00:19:20.131Z,1.70
2023-04-05T00:27:30.299Z,2.13
2023-04-05T00:30:34.047Z,2.30
2023-04-05T00:33:36.318Z,2.20
2023-04-05T00:36:38.277Z,2.17
2023-04-05T00:39:43.435Z,2.07
2023-04-05T00:42:45.399Z,1.90
2023-04-05T00:45:48.155Z,1.83
2023-04-05T00:48:50.688Z,2.20
2023-04-05T00:51:52.577Z,2.10
2023-04-05T00:54:54.601Z,1.97
2023-04-05T00:57:59.729Z,1.90
2023-04-05T01:01:28.981Z,2.10
2023-04-05T01:04:34.191Z,2.13
2023-04-05T01:07:43.844Z,2.10
2023-04-05T01:10:52.485Z,2.10
2023-04-05T01:18:05.391Z,2.30
2023-04-05T01:21:07.845Z,2.17
2023-04-05T01:24:47.533Z,1.90
2023-04-05T01:28:18.854Z,2.43
2023-04-05T01:31:31.155Z,2.13
2023-04-05T01:34:39.023Z,2.20
2023-04-05T01:37:41.882Z,1.97
2023-04-05T01:40:44.200Z,1.87
2023-04-05T01:43:46.850Z,2.20
2023-04-05T01:46:49.177Z,2.17
2023-04-05T01:49:51.208Z,2.20
2023-04-05T01:52:53.213Z,2.10
2023-04-05T01:56:09.558Z,2.60
2023-04-05T01:59:11.625Z,2.00
2023-04-05T02:02:14.205Z,2.27
2023-04-05T02:05:16.612Z,2.70
2023-04-05T02:08:18.915Z,2.13
2023-04-05T02:11:21.383Z,2.30
2023-04-05T02:18:22.902Z,2.20
2023-04-05T02:21:52.641Z,2.03
2023-04-05T02:25:02.272Z,2.40
2023-04-05T02:28:07.040Z,2.13
2023-04-05T02:31:12.611Z,2.00
2023-04-05T02:34:14.712Z,2.40
2023-04-05T02:37:16.820Z,2.40
2023-04-05T02:40:20.291Z,2.30
2023-04-05T02:43:22.513Z,2.00
2023-04-05T02:46:40.732Z,2.17
2023-04-05T02:49:42.661Z,2.50
2023-04-05T03:01:59.684Z,2.00
2023-04-05T03:05:02.678Z,2.30
2023-04-05T03:08:45.812Z,2.97
2023-04-05T03:31:20.083Z,2.20
2023-04-05T03:34:32.246Z,2.57
2023-04-05T03:37:34.971Z,2.50
2023-04-05T03:40:36.891Z,2.30
2023-04-05T03:43:39.014Z,2.40
2023-04-05T03:46:41.084Z,2.20
2023-04-05T03:49:53.461Z,2.67
2023-04-05T03:52:55.954Z,1.93
2023-04-05T03:55:58.063Z,2.27
2023-04-05T03:59:00.220Z,2.07
2023-04-05T04:02:38.798Z,2.20
2023-04-05T04:05:49.872Z,2.47
2023-04-05T04:09:08.683Z,2.37
2023-04-05T04:12:29.803Z,2.53
2023-04-05T04:25:33.685Z,2.13
2023-04-05T04:28:46.302Z,2.33
2023-04-05T04:31:48.649Z,2.77
2023-04-05T04:39:07.446Z,2.50
2023-04-05T04:42:50.704Z,2.90
2023-04-05T04:45:55.331Z,2.47
2023-04-05T04:48:57.963Z,2.67
2023-04-05T04:52:00.046Z,2.90
2023-04-05T04:55:03.459Z,2.80
2023-04-05T04:58:10.177Z,2.87
2023-04-05T05:01:12.271Z,3.00
2023-04-05T05:04:14.365Z,2.70
2023-04-05T05:07:17.919Z,2.40
2023-04-05T05:10:20.930Z,2.70
2023-04-05T05:13:22.904Z,3.27
2023-04-05T05:16:25.057Z,3.37
2023-04-05T05:19:27.018Z,2.87
2023-04-05T05:22:30.036Z,2.77
2023-04-05T05:25:31.892Z,3.30
2023-04-05T05:28:33.840Z,2.33
2023-04-05T05:31:36.823Z,3.03
2023-04-05T05:34:38.913Z,2.90
2023-04-05T05:37:40.991Z,2.80
2023-04-05T05:40:43.975Z,2.70
2023-04-05T05:43:46.220Z,2.77
2023-04-05T05:46:48.912Z,2.90
2023-04-05T05:49:50.872Z,2.87
2023-04-05T05:52:52.844Z,2.53
2023-04-05T05:55:54.703Z,2.90
2023-04-05T05:58:57.072Z,2.40
2023-04-05T06:01:59.028Z,2.77
2023-04-05T06:05:02.570Z,3.23
2023-04-05T06:08:04.971Z,2.80
2023-04-05T06:11:07.562Z,2.77
2023-04-05T06:14:09.709Z,3.00
2023-04-05T06:17:12.037Z,3.00
2023-04-05T06:20:13.940Z,2.70
2023-04-05T06:23:16.814Z,3.33
2023-04-05T06:26:20.948Z,3.00
2023-04-05T06:29:22.890Z,2.83
2023-04-05T06:32:25.151Z,2.20
2023-04-05T06:35:27.586Z,2.67
2023-04-05T06:38:29.463Z,2.60
2023-04-05T06:41:32.464Z,2.70
2023-04-05T06:44:34.368Z,2.63
2023-04-05T06:51:27.162Z,2.73
2023-04-05T06:54:30.059Z,2.30
2023-04-05T06:58:25.016Z,2.80
2023-04-05T07:01:37.090Z,2.80
2023-04-05T07:04:39.888Z,2.67
2023-04-05T07:07:49.675Z,2.27
2023-04-05T07:10:51.998Z,3.03
2023-04-05T07:13:54.042Z,2.50
2023-04-05T07:16:56.389Z,2.57
2023-04-05T07:19:58.568Z,2.10
2023-04-05T07:23:00.622Z,2.73
2023-04-05T07:26:08.961Z,2.30
2023-04-05T07:29:11.779Z,1.97
2023-04-05T07:32:13.702Z,2.63
2023-04-05T07:35:15.669Z,2.40
2023-04-05T07:38:17.650Z,2.50
2023-04-05T07:41:20.724Z,2.77
2023-04-05T07:44:22.988Z,2.43
2023-04-05T07:47:24.913Z,2.40
2023-04-05T07:50:27.946Z,2.00
2023-04-05T07:53:29.828Z,2.80
2023-04-05T07:56:33.491Z,2.57
2023-04-05T07:59:35.589Z,2.27
2023-04-05T08:02:38.566Z,2.63
2023-04-05T08:05:40.526Z,2.60
2023-04-05T08:08:42.533Z,3.03
2023-04-05T08:11:45.106Z,2.37
2023-04-05T08:14:47.096Z,2.97
2023-04-05T08:17:49.079Z,2.70
2023-04-05T08:20:55.958Z,2.90
2023-04-05T08:23:58.468Z,2.87
2023-04-05T08:27:01.280Z,2.90
2023-04-05T08:30:04.331Z,2.70
2023-04-05T08:33:06.853Z,2.60
2023-04-05T08:36:10.263Z,2.90
2023-04-05T08:39:12.303Z,2.87
2023-04-05T08:42:29.950Z,2.77
2023-04-05T08:45:33.312Z,3.47
2023-04-05T08:48:37.816Z,3.20
2023-04-05T08:51:40.871Z,4.23
2023-04-05T08:54:43.207Z,3.30
2023-04-05T08:57:50.455Z,3.20
2023-04-05T09:00:52.736Z,3.17
2023-04-05T09:03:55.365Z,2.63
2023-04-05T09:06:59.208Z,3.07
2023-04-05T09:10:02.008Z,2.90
2023-04-05T09:13:03.928Z,2.97
2023-04-05T09:16:06.786Z,3.03
2023-04-05T09:19:09.681Z,2.77
2023-04-05T09:22:12.298Z,3.00
2023-04-05T09:25:32.463Z,3.33
2023-04-05T09:28:44.777Z,2.77
2023-04-05T09:31:49.821Z,3.00
2023-04-05T09:34:54.176Z,3.23
2023-04-05T09:37:58.354Z,2.87
2023-04-05T09:41:09.542Z,3.40
2023-04-05T09:44:11.552Z,3.20
2023-04-05T09:47:17.606Z,3.73
2023-04-05T09:50:21.144Z,3.20
2023-04-05T09:53:23.197Z,3.13
2023-04-05T09:56:25.541Z,3.57
2023-04-05T09:59:31.249Z,3.23
2023-04-05T10:02:38.364Z,3.57
2023-04-05T10:05:41.401Z,3.00
2023-04-05T10:08:43.417Z,3.20
2023-04-05T10:11:46.276Z,3.17
2023-04-05T10:14:48.341Z,3.50
2023-04-05T10:17:56.581Z,3.40
2023-04-05T10:20:58.864Z,3.20
2023-04-05T10:24:20.876Z,3.83
2023-04-05T10:27:31.794Z,3.30
2023-04-05T10:30:40.145Z,3.70
2023-04-05T10:33:48.133Z,3.90
2023-04-05T10:36:57.584Z,4.10
2023-04-05T10:40:03.355Z,3.50
2023-04-05T10:43:08.648Z,3.73
2023-04-05T10:46:11.746Z,3.53
2023-04-05T10:49:27.739Z,3.80
2023-04-05T10:52:31.193Z,3.57
2023-04-05T10:55:34.854Z,3.27
2023-04-05T10:58:37.504Z,3.40
2023-04-05T11:01:40.870Z,3.47
2023-04-05T11:04:43.210Z,3.83
2023-04-05T11:07:46.187Z,3.27
2023-04-05T11:10:52.702Z,3.63
2023-04-05T11:13:57.139Z,3.60
2023-04-05T11:17:00.153Z,3.33
2023-04-05T11:20:06.972Z,3.70
2023-04-05T11:23:11.272Z,3.57
2023-04-05T11:26:13.553Z,3.37
2023-04-05T11:29:18.461Z,3.77
2023-04-05T11:32:21.610Z,3.67
2023-04-05T11:35:23.650Z,3.80
2023-04-05T11:38:25.622Z,3.20
2023-04-05T11:41:33.668Z,4.00
2023-04-05T11:44:48.569Z,3.80
2023-04-05T11:47:51.438Z,3.17
2023-04-05T11:50:54.977Z,4.10
2023-04-05T11:53:56.917Z,4.00
2023-04-05T11:57:00.421Z,4.03
2023-04-05T12:00:03.316Z,3.40
2023-04-05T12:03:05.752Z,3.27
2023-04-05T12:06:10.518Z,3.43
2023-04-05T12:09:12.976Z,3.27
2023-04-05T12:12:17.993Z,3.90
2023-04-05T12:15:20.086Z,3.80
2023-04-05T12:18:22.307Z,3.97
2023-04-05T12:21:25.699Z,3.50
2023-04-05T12:24:28.215Z,3.77
2023-04-05T12:27:30.552Z,3.90
2023-04-05T12:30:36.824Z,3.70
2023-04-05T12:33:42.042Z,4.00
2023-04-05T12:36:46.375Z,3.67
2023-04-05T12:39:48.931Z,3.70
2023-04-05T12:42:51.299Z,3.67
2023-04-05T12:45:56.887Z,3.53
2023-04-05T12:49:00.199Z,3.47
2023-04-05T12:52:03.626Z,3.53
2023-04-05T12:55:16.383Z,3.70
2023-04-05T12:58:20.134Z,3.50
2023-04-05T13:01:22.506Z,3.90
2023-04-05T13:04:26.829Z,3.90
2023-04-05T13:07:28.886Z,3.67
2023-04-05T13:10:31.664Z,3.70
2023-04-05T13:13:34.626Z,4.17
2023-04-05T13:16:36.714Z,3.90
2023-04-05T13:19:38.801Z,3.40
2023-04-05T13:22:41.395Z,3.57
2023-04-05T13:25:45.744Z,3.73
2023-04-05T13:28:47.731Z,3.67
2023-04-05T13:31:49.814Z,3.67
2023-04-05T13:34:51.812Z,3.47
2023-04-05T13:37:53.824Z,3.97
2023-04-05T13:40:56.368Z,4.47
2023-04-05T13:44:01.123Z,3.87
2023-04-05T13:47:04.693Z,3.27
2023-04-05T13:50:07.385Z,3.97
2023-04-05T13:53:09.671Z,3.90
2023-04-05T13:56:11.713Z,3.93
2023-04-05T13:59:16.881Z,4.17
2023-04-05T14:02:20.912Z,3.53
2023-04-05T14:05:23.229Z,3.63
2023-04-05T14:08:25.095Z,3.87
2023-04-05T14:11:27.153Z,3.47
2023-04-05T14:14:29.440Z,3.33
2023-04-05T14:17:31.454Z,3.23
2023-04-05T14:20:33.456Z,3.40
2023-04-05T14:23:35.907Z,3.37
2023-04-05T14:26:38.010Z,3.10
2023-04-05T14:29:39.991Z,3.37
2023-04-05T14:32:42.090Z,3.83
2023-04-05T14:35:44.979Z,2.90
2023-04-05T14:38:46.988Z,3.33
2023-04-05T14:41:52.805Z,3.50
2023-04-05T14:44:55.799Z,3.47
2023-04-05T14:47:57.895Z,3.57
2023-04-05T14:51:00.640Z,4.20
2023-04-05T14:54:02.901Z,3.87
2023-04-05T14:57:04.959Z,4.73
2023-04-05T15:00:09.417Z,3.10
2023-04-05T15:03:11.636Z,2.90
2023-04-05T15:06:13.670Z,3.13
2023-04-05T15:09:15.733Z,2.90
2023-04-05T15:12:18.263Z,2.77
2023-04-05T15:15:20.230Z,2.73
2023-04-05T15:18:22.491Z,3.20
2023-04-05T15:21:24.782Z,2.80
2023-04-05T15:24:26.890Z,2.93
2023-04-05T15:27:28.822Z,2.60
2023-04-05T15:30:33.771Z,2.70
2023-04-05T15:33:35.948Z,2.90
2023-04-05T15:36:38.032Z,3.33
2023-04-05T15:39:40.002Z,3.03
2023-04-05T15:42:42.608Z,3.37
2023-04-05T15:45:44.688Z,3.40
2023-04-05T15:48:47.480Z,2.77
2023-04-05T15:51:49.370Z,3.23
2023-04-05T15:54:51.341Z,2.87
2023-04-05T15:57:54.963Z,3.53
2023-04-05T16:00:56.979Z,2.60
2023-04-05T16:03:59.095Z,3.13
2023-04-05T16:07:01.909Z,3.33
2023-04-05T16:10:04.724Z,3.53
2023-04-05T16:13:06.900Z,2.97
2023-04-05T16:16:08.898Z,3.23
2023-04-05T16:19:10.951Z,3.30
2023-04-05T16:22:13.189Z,3.27
2023-04-05T16:25:15.807Z,3.60
2023-04-05T16:28:17.826Z,2.90
2023-04-05T16:31:19.983Z,3.00
2023-04-05T16:34:22.421Z,3.67
2023-04-05T16:37:24.379Z,2.90
2023-04-05T16:40:26.556Z,3.27
2023-04-05T16:43:29.615Z,3.53
2023-04-05T16:46:32.511Z,3.20
2023-04-05T16:49:34.670Z,3.30
2023-04-05T16:52:36.640Z,2.80
2023-04-05T16:55:39.052Z,3.27
2023-04-05T16:58:41.192Z,3.33
2023-04-05T17:01:43.875Z,3.27
2023-04-05T17:04:46.670Z,3.37
2023-04-05T17:07:48.698Z,3.10
2023-04-05T17:10:51.468Z,2.63
2023-04-05T17:13:53.884Z,2.80
2023-04-05T17:16:56.348Z,3.10
2023-04-05T17:19:59.354Z,2.50
2023-04-05T17:23:01.421Z,2.30
2023-04-05T17:26:03.941Z,2.53
2023-04-05T17:29:06.348Z,2.70
2023-04-05T17:32:08.820Z,2.67
2023-04-05T17:35:10.903Z,2.70
2023-04-05T17:38:13.508Z,3.23
2023-04-05T17:41:15.461Z,2.93
2023-04-05T17:44:17.632Z,3.27
2023-04-05T17:47:19.671Z,3.03
2023-04-05T17:50:23.746Z,2.70
2023-04-05T17:53:27.433Z,3.00
2023-04-05T17:56:29.474Z,2.60
2023-04-05T17:59:31.527Z,2.73
2023-04-05T18:02:37.792Z,3.10
2023-04-05T18:05:39.995Z,2.93
2023-04-05T18:08:42.059Z,2.47
2023-04-05T18:11:44.119Z,2.50
2023-04-05T18:14:46.149Z,2.77
2023-04-05T18:17:48.312Z,2.60
2023-04-05T18:20:55.308Z,2.67
2023-04-05T18:23:59.265Z,2.67
2023-04-05T18:27:05.295Z,2.57
2023-04-05T18:30:08.191Z,2.80
2023-04-05T18:33:12.964Z,2.93
2023-04-05T18:36:15.294Z,2.53
2023-04-05T18:39:18.016Z,2.83
2023-04-05T18:42:20.216Z,2.30
2023-04-05T18:45:23.306Z,2.53
2023-04-05T18:48:26.132Z,2.40
2023-04-05T18:51:29.406Z,2.73
2023-04-05T18:54:34.291Z,2.60
2023-04-05T18:57:36.946Z,3.03
2023-04-05T19:00:38.970Z,2.90
2023-04-05T19:03:41.818Z,3.10
2023-04-05T19:06:43.893Z,2.40
2023-04-05T19:09:46.719Z,2.53
2023-04-05T19:12:49.103Z,2.80
2023-04-05T19:15:52.515Z,2.60
2023-04-05T19:18:55.196Z,2.60
2023-04-05T19:21:58.214Z,2.90
2023-04-05T19:25:01.983Z,2.80
2023-04-05T19:28:05.594Z,2.90
2023-04-05T19:31:09.082Z,2.60
2023-04-05T19:34:11.860Z,3.00
2023-04-05T19:37:14.022Z,2.93
2023-04-05T19:40:18.068Z,3.27
2023-04-05T19:43:20.227Z,2.63
2023-04-05T19:46:22.981Z,3.17
2023-04-05T19:49:33.490Z,3.03
2023-04-05T19:52:40.938Z,3.37
2023-04-05T19:55:48.908Z,3.47
2023-04-05T19:58:57.914Z,3.37
2023-04-05T20:02:01.052Z,2.80
2023-04-05T20:05:10.821Z,3.53
2023-04-05T20:08:12.924Z,2.87
2023-04-05T20:11:17.144Z,3.23
2023-04-05T20:14:20.488Z,3.17
2023-04-05T20:17:23.291Z,3.03
2023-04-05T20:20:27.740Z,3.20
2023-04-05T20:23:31.216Z,3.10
2023-04-05T20:26:33.868Z,2.93
2023-04-05T20:29:36.507Z,3.87
2023-04-05T20:32:38.458Z,3.23
2023-04-05T20:35:42.490Z,3.40
2023-04-05T20:38:45.869Z,3.20
2023-04-05T20:41:48.237Z,3.60
2023-04-05T20:44:50.344Z,3.23
2023-04-05T20:47:55.990Z,3.83
2023-04-05T20:51:07.023Z,3.43
2023-04-05T20:54:11.566Z,3.00
2023-04-05T20:57:14.661Z,2.80
2023-04-05T21:00:18.107Z,3.13
2023-04-05T21:03:20.330Z,3.10
2023-04-05T21:06:26.846Z,2.80
2023-04-05T21:09:29.601Z,3.40
2023-04-05T21:12:31.549Z,3.87
2023-04-05T21:15:35.502Z,2.67
2023-04-05T21:18:37.874Z,3.60
2023-04-05T21:21:39.929Z,3.10
2023-04-05T21:24:42.175Z,3.03
2023-04-05T21:27:45.866Z,3.60
2023-04-05T21:30:48.058Z,3.47
2023-04-05T21:33:50.436Z,3.40
2023-04-05T21:36:52.784Z,3.33
2023-04-05T21:39:54.875Z,3.00
2023-04-05T21:42:57.630Z,3.23
2023-04-05T21:45:59.683Z,3.40
2023-04-05T21:49:01.905Z,3.03
2023-04-05T21:52:04.060Z,3.47
2023-04-05T21:55:06.740Z,3.13
2023-04-05T21:58:08.876Z,3.30
2023-04-05T22:01:10.973Z,3.00
2023-04-05T22:04:13.207Z,3.20
2023-04-05T22:07:16.270Z,3.10
2023-04-05T22:10:18.356Z,3.53
2023-04-05T22:13:20.767Z,3.43
2023-04-05T22:16:22.793Z,3.37
2023-04-05T22:19:25.771Z,3.47
2023-04-05T22:22:27.730Z,3.67
2023-04-05T22:25:29.800Z,2.90
2023-04-05T22:28:32.116Z,3.43
2023-04-05T22:31:34.365Z,3.13
2023-04-05T22:34:36.407Z,3.50
2023-04-05T22:37:38.582Z,3.47
2023-04-05T22:40:40.768Z,3.73
2023-04-05T22:43:42.732Z,3.60
2023-04-05T22:46:44.689Z,3.80
2023-04-05T22:49:46.614Z,3.03
2023-04-05T22:52:48.540Z,3.90
2023-04-05T22:55:51.353Z,3.07
2023-04-05T22:58:53.416Z,3.40
2023-04-05T23:01:55.989Z,3.10
2023-04-05T23:04:59.514Z,3.70
2023-04-05T23:08:01.869Z,4.63
2023-04-05T23:11:04.001Z,3.43
2023-04-05T23:14:06.930Z,3.30
2023-04-05T23:17:09.569Z,3.57
2023-04-05T23:20:12.281Z,3.80
2023-04-05T23:23:15.450Z,3.47
2023-04-05T23:26:17.712Z,3.93
2023-04-05T23:29:19.737Z,3.47
2023-04-05T23:32:22.434Z,3.17
2023-04-05T23:35:24.370Z,3.40
2023-04-05T23:38:27.249Z,4.00
2023-04-05T23:41:29.234Z,3.70
2023-04-05T23:44:31.735Z,3.30
2023-04-05T23:47:33.732Z,4.67
2023-04-05T23:50:36.573Z,3.17
2023-04-05T23:53:38.547Z,3.67
2023-04-05T23:56:41.357Z,3.73
2023-04-05T23:59:43.482Z,3.13
